createdAt,value
2022-11-13T00:00:01.577Z,101127.88
2022-11-13T00:00:33.314Z,101135.75
2022-11-13T00:01:23.605Z,101140.13
2022-11-13T00:01:55.161Z,101134.56
2022-11-13T00:02:26.836Z,101137.47
2022-11-13T00:02:58.598Z,101137.47
2022-11-13T00:03:30.311Z,101137.03
2022-11-13T00:04:01.860Z,101135.34
2022-11-13T00:04:33.553Z,101134.50
2022-11-13T00:05:05.364Z,101132.69
2022-11-13T00:05:36.996Z,101132.03
2022-11-13T00:06:08.541Z,101138.22
2022-11-13T00:06:40.100Z,101130.44
2022-11-13T00:07:11.762Z,101134.91
2022-11-13T00:07:43.325Z,101134.91
2022-11-13T00:08:14.876Z,101139.16
2022-11-13T00:08:46.602Z,101135.56
2022-11-13T00:09:18.214Z,101130.44
2022-11-13T00:09:49.779Z,101135.75
2022-11-13T00:10:21.302Z,101131.06
2022-11-13T00:10:52.964Z,101131.84
2022-11-13T00:11:24.528Z,101134.34
2022-11-13T00:11:56.125Z,101132.56
2022-11-13T00:12:29.016Z,101136.28
2022-11-13T00:13:00.556Z,101135.34
2022-11-13T00:13:32.186Z,101134.34
2022-11-13T00:14:04.102Z,101132.78
2022-11-13T00:14:35.672Z,101140.78
2022-11-13T00:15:07.363Z,101136.28
2022-11-13T00:15:38.880Z,101129.91
2022-11-13T00:16:11.581Z,101134.25
2022-11-13T00:16:43.191Z,101140.66
2022-11-13T00:17:14.696Z,101128.09
2022-11-13T00:17:46.318Z,101128.09
2022-11-13T00:18:17.935Z,101130.97
2022-11-13T00:18:49.459Z,101137.91
2022-11-13T00:19:21.026Z,101129.03
2022-11-13T00:19:52.604Z,101123.69
2022-11-13T00:20:24.091Z,101134.59
2022-11-13T00:20:56.550Z,101132.69
2022-11-13T00:21:29.162Z,101131.94
2022-11-13T00:22:00.728Z,101131.94
2022-11-13T00:22:32.377Z,101125.63
2022-11-13T00:23:03.916Z,101122.97
2022-11-13T00:23:35.654Z,101135.34
2022-11-13T00:24:07.463Z,101129.03
2022-11-13T00:24:39.060Z,101129.28
2022-11-13T00:25:10.660Z,101128.28
2022-11-13T00:25:42.247Z,101130.97
2022-11-13T00:26:14.732Z,101130.31
2022-11-13T00:26:46.278Z,101123.94
2022-11-13T00:27:17.905Z,101124.69
2022-11-13T00:27:49.394Z,101126.63
2022-11-13T00:28:21.049Z,101122.97
2022-11-13T00:28:53.227Z,101118.50
2022-11-13T00:29:24.819Z,101127.34
2022-11-13T00:29:56.446Z,101118.50
2022-11-13T00:30:28.061Z,101123.94
2022-11-13T00:31:00.086Z,101123.94
2022-11-13T00:31:31.796Z,101115.84
2022-11-13T00:32:03.542Z,101123.19
2022-11-13T00:32:35.079Z,101118.72
2022-11-13T00:33:06.658Z,101124.91
2022-11-13T00:34:05.382Z,101116.91
2022-11-13T00:35:21.558Z,101116.69
2022-11-13T00:35:53.129Z,101112.31
2022-11-13T00:36:26.519Z,101117.63
2022-11-13T00:36:58.332Z,101114.25
2022-11-13T00:37:29.875Z,101115.84
2022-11-13T00:38:01.429Z,101121.28
2022-11-13T00:38:33.002Z,101117.84
2022-11-13T00:39:04.673Z,101120.50
2022-11-13T00:39:36.168Z,101114.25
2022-11-13T00:40:07.993Z,101120.41
2022-11-13T00:40:39.588Z,101118.72
2022-11-13T00:41:11.205Z,101123.28
2022-11-13T00:41:42.947Z,101114.97
2022-11-13T00:42:14.493Z,101115.97
2022-11-13T00:42:46.051Z,101109.75
2022-11-13T00:43:17.646Z,101115.19
2022-11-13T00:43:49.223Z,101115.09
2022-11-13T00:44:20.784Z,101113.41
2022-11-13T00:44:52.368Z,101109.03
2022-11-13T00:45:23.923Z,101108.91
2022-11-13T00:45:55.435Z,101116.06
2022-11-13T00:46:27.004Z,101111.47
2022-11-13T00:46:58.532Z,101108.91
2022-11-13T00:47:30.072Z,101117.84
2022-11-13T00:48:01.601Z,101110.72
2022-11-13T00:48:33.264Z,101105.41
2022-11-13T00:49:04.806Z,101104.44
2022-11-13T00:49:36.404Z,101117.75
2022-11-13T00:50:08.099Z,101114.13
2022-11-13T00:50:39.696Z,101107.97
2022-11-13T00:51:11.220Z,101103.59
2022-11-13T00:51:42.730Z,101101.03
2022-11-13T00:52:14.291Z,101106.34
2022-11-13T00:52:45.866Z,101106.34
2022-11-13T00:53:18.299Z,101105.50
2022-11-13T00:53:49.992Z,101104.63
2022-11-13T00:54:21.502Z,101106.34
2022-11-13T00:54:53.097Z,101103.59
2022-11-13T00:55:24.663Z,101105.41
2022-11-13T00:55:56.191Z,101101.13
2022-11-13T00:56:27.796Z,101101.13
2022-11-13T00:57:49.391Z,101096.53
2022-11-13T00:58:20.794Z,101102.94
2022-11-13T00:58:52.384Z,101088.88
2022-11-13T00:59:23.821Z,101101.13
2022-11-13T00:59:55.209Z,101102.94
2022-11-13T01:00:26.687Z,101085.03
2022-11-13T01:01:03.487Z,101088.56
2022-11-13T01:01:34.998Z,101089.84
2022-11-13T01:02:06.545Z,101088.97
2022-11-13T01:02:38.004Z,101089.75
2022-11-13T01:03:09.706Z,101094.75
2022-11-13T01:03:41.164Z,101095.38
2022-11-13T01:04:12.682Z,101088.84
2022-11-13T01:04:44.117Z,101089.06
2022-11-13T01:05:15.630Z,101085.47
2022-11-13T01:05:47.128Z,101094.94
2022-11-13T01:06:22.622Z,101092.41
2022-11-13T01:06:54.008Z,101084.50
2022-11-13T01:07:25.362Z,101090.78
2022-11-13T01:07:56.778Z,101095.69
2022-11-13T01:08:28.492Z,101095.69
2022-11-13T01:09:00.090Z,101088.56
2022-11-13T01:09:31.503Z,101097.53
2022-11-13T01:10:06.188Z,101086.88
2022-11-13T01:10:45.595Z,101101.25
2022-11-13T01:11:19.607Z,101096.88
2022-11-13T01:11:51.013Z,101089.97
2022-11-13T01:12:22.362Z,101092.63
2022-11-13T01:12:53.768Z,101098.91
2022-11-13T01:13:25.233Z,101093.56
2022-11-13T01:13:56.697Z,101094.31
2022-11-13T01:14:28.068Z,101091.63
2022-11-13T01:14:59.730Z,101092.63
2022-11-13T01:15:31.270Z,101095.28
2022-11-13T01:16:04.981Z,101087.19
2022-11-13T01:16:36.389Z,101091.31
2022-11-13T01:17:07.814Z,101095.06
2022-11-13T01:17:39.208Z,101100.19
2022-11-13T01:18:10.991Z,101093.16
2022-11-13T01:18:42.457Z,101093.16
2022-11-13T01:19:13.956Z,101092.19
2022-11-13T01:19:45.413Z,101092.94
2022-11-13T01:20:16.974Z,101091.22
2022-11-13T01:20:48.381Z,101093.97
2022-11-13T01:21:20.868Z,101101.88
2022-11-13T01:21:52.366Z,101099.22
2022-11-13T01:22:23.927Z,101096.53
2022-11-13T01:22:55.337Z,101101.88
2022-11-13T01:23:26.835Z,101101.03
2022-11-13T01:23:58.298Z,101097.53
2022-11-13T01:24:29.828Z,101098.47
2022-11-13T01:25:01.212Z,101099.31
2022-11-13T01:25:32.729Z,101102.84
2022-11-13T01:26:23.013Z,101096.53
2022-11-13T01:26:54.478Z,101097.63
2022-11-13T01:27:25.885Z,101100.19
2022-11-13T01:27:57.328Z,101097.53
2022-11-13T01:28:28.898Z,101099.22
2022-11-13T01:29:00.599Z,101091.22
2022-11-13T01:29:32.137Z,101097.53
2022-11-13T01:30:04.294Z,101091.44
2022-11-13T01:30:35.775Z,101094.09
2022-11-13T01:31:07.525Z,101095.06
2022-11-13T01:31:39.033Z,101089.75
2022-11-13T01:32:10.395Z,101094.97
2022-11-13T01:32:41.787Z,101095.81
2022-11-13T01:33:13.208Z,101092.31
2022-11-13T01:33:44.977Z,101095.91
2022-11-13T01:34:16.461Z,101094.97
2022-11-13T01:34:47.925Z,101088.03
2022-11-13T01:35:19.394Z,101088.03
2022-11-13T01:35:50.854Z,101081.75
2022-11-13T01:36:24.721Z,101084.41
2022-11-13T01:36:56.201Z,101088.03
2022-11-13T01:37:27.763Z,101087.81
2022-11-13T01:37:59.182Z,101082.50
2022-11-13T01:38:35.750Z,101084.41
2022-11-13T01:39:09.150Z,101078.22
2022-11-13T01:39:40.611Z,101084.41
2022-11-13T01:40:12.191Z,101088.03
2022-11-13T01:40:46.829Z,101086.31
2022-11-13T01:41:25.261Z,101085.25
2022-11-13T01:41:56.718Z,101087.94
2022-11-13T01:42:28.122Z,101081.75
2022-11-13T01:42:59.585Z,101082.69
2022-11-13T01:43:34.575Z,101080.88
2022-11-13T01:44:06.540Z,101076.44
2022-11-13T01:44:52.992Z,101079.94
2022-11-13T01:45:47.519Z,101079.19
2022-11-13T01:46:20.297Z,101071.09
2022-11-13T01:46:54.829Z,101081.88
2022-11-13T01:47:26.280Z,101078.31
2022-11-13T01:47:57.828Z,101074.59
2022-11-13T01:48:32.388Z,101079.31
2022-11-13T01:49:03.736Z,101077.38
2022-11-13T01:49:36.355Z,101072.06
2022-11-13T01:50:09.081Z,101068.44
2022-11-13T01:50:40.612Z,101077.28
2022-11-13T01:51:13.005Z,101071.22
2022-11-13T01:51:54.612Z,101073.75
2022-11-13T01:52:27.138Z,101072.06
2022-11-13T01:52:58.631Z,101072.06
2022-11-13T01:53:30.114Z,101072.78
2022-11-13T01:54:02.679Z,101064.78
2022-11-13T01:54:35.396Z,101062.13
2022-11-13T01:55:12.955Z,101068.66
2022-11-13T01:55:44.410Z,101060.56
2022-11-13T01:56:15.981Z,101061.41
2022-11-13T01:56:47.587Z,101068.66
2022-11-13T01:57:19.112Z,101059.94
2022-11-13T01:57:50.579Z,101059.81
2022-11-13T01:58:22.012Z,101059.81
2022-11-13T01:58:54.694Z,101061.63
2022-11-13T01:59:27.197Z,101067.56
2022-11-13T01:59:59.901Z,101064.06
2022-11-13T02:00:31.346Z,101058.94
2022-11-13T02:01:03.099Z,101056.19
2022-11-13T02:01:34.714Z,101064.28
2022-11-13T02:02:06.245Z,101059.94
2022-11-13T02:02:37.896Z,101060.56
2022-11-13T02:03:09.294Z,101055.34
2022-11-13T02:03:40.747Z,101062.34
2022-11-13T02:04:12.234Z,101054.34
2022-11-13T02:04:43.704Z,101055.34
2022-11-13T02:05:15.238Z,101056.06
2022-11-13T02:05:46.666Z,101060.56
2022-11-13T02:06:18.285Z,101056.06
2022-11-13T02:06:51.479Z,101056.06
2022-11-13T02:07:23.057Z,101056.06
2022-11-13T02:07:54.615Z,101058.84
2022-11-13T02:08:26.294Z,101055.34
2022-11-13T02:08:57.960Z,101045.63
2022-11-13T02:09:30.669Z,101048.19
2022-11-13T02:10:02.083Z,101049.78
2022-11-13T02:10:33.569Z,101048.91
2022-11-13T02:11:05.000Z,101052.47
2022-11-13T02:11:37.034Z,101045.41
2022-11-13T02:12:09.430Z,101046.38
2022-11-13T02:12:41.434Z,101046.50
2022-11-13T02:13:12.890Z,101042.84
2022-11-13T02:13:44.361Z,101046.38
2022-11-13T02:14:15.855Z,101046.38
2022-11-13T02:14:49.224Z,101041.91
2022-11-13T02:15:20.982Z,101044.69
2022-11-13T02:15:52.492Z,101045.41
2022-11-13T02:16:23.994Z,101048.19
2022-11-13T02:17:03.286Z,101046.50
2022-11-13T02:17:40.319Z,101050.84
2022-11-13T02:18:11.767Z,101041.91
2022-11-13T02:18:43.207Z,101044.69
2022-11-13T02:19:17.282Z,101040.41
2022-11-13T02:19:53.032Z,101041.19
2022-11-13T02:20:30.851Z,101036.91
2022-11-13T02:21:02.232Z,101047.44
2022-11-13T02:22:05.896Z,101042.22
2022-11-13T02:22:38.832Z,101046.38
2022-11-13T02:23:19.313Z,101041.19
2022-11-13T02:24:09.330Z,101036.91
2022-11-13T02:24:44.780Z,101046.38
2022-11-13T02:25:16.613Z,101037.63
2022-11-13T02:25:48.472Z,101045.84
2022-11-13T02:26:20.311Z,101035.97
2022-11-13T02:26:51.804Z,101044.91
2022-11-13T02:27:25.258Z,101041.28
2022-11-13T02:27:56.653Z,101041.28
2022-11-13T02:28:28.196Z,101038.63
2022-11-13T02:28:59.853Z,101040.31
2022-11-13T02:29:31.289Z,101043.06
2022-11-13T02:30:15.910Z,101040.53
2022-11-13T02:30:47.953Z,101036.91
2022-11-13T02:31:19.397Z,101040.41
2022-11-13T02:31:50.825Z,101036.91
2022-11-13T02:32:22.261Z,101041.41
2022-11-13T02:32:53.887Z,101039.56
2022-11-13T02:33:33.351Z,101045.75
2022-11-13T02:34:04.767Z,101037.75
2022-11-13T02:34:36.150Z,101048.41
2022-11-13T02:35:07.664Z,101035.84
2022-11-13T02:35:39.018Z,101029.03
2022-11-13T02:36:10.570Z,101035.19
2022-11-13T02:36:42.119Z,101041.41
2022-11-13T02:37:13.535Z,101035.97
2022-11-13T02:37:44.960Z,101043.06
2022-11-13T02:38:16.451Z,101037.00
2022-11-13T02:38:47.847Z,101038.63
2022-11-13T02:39:19.357Z,101040.41
2022-11-13T02:39:50.733Z,101036.91
2022-11-13T02:40:22.252Z,101034.47
2022-11-13T02:40:53.719Z,101037.84
2022-11-13T02:41:25.105Z,101034.25
2022-11-13T02:41:56.529Z,101026.47
2022-11-13T02:42:27.928Z,101036.06
2022-11-13T02:42:59.336Z,101036.81
2022-11-13T02:43:30.757Z,101039.56
2022-11-13T02:44:02.174Z,101034.97
2022-11-13T02:44:33.779Z,101040.31
2022-11-13T02:45:05.654Z,101038.63
2022-11-13T02:45:37.105Z,101042.22
2022-11-13T02:46:08.548Z,101044.91
2022-11-13T02:46:40.438Z,101038.72
2022-11-13T02:47:11.918Z,101036.91
2022-11-13T02:47:43.341Z,101036.91
2022-11-13T02:48:14.773Z,101033.28
2022-11-13T02:48:46.234Z,101031.59
2022-11-13T02:49:17.724Z,101033.41
2022-11-13T02:49:49.090Z,101040.53
2022-11-13T02:50:20.607Z,101040.53
2022-11-13T02:50:52.071Z,101036.06
2022-11-13T02:51:23.515Z,101038.72
2022-11-13T02:51:54.957Z,101035.97
2022-11-13T02:52:26.513Z,101038.50
2022-11-13T02:52:58.042Z,101034.97
2022-11-13T02:53:29.565Z,101035.97
2022-11-13T02:54:01.093Z,101034.13
2022-11-13T02:54:32.600Z,101035.09
2022-11-13T02:55:04.472Z,101034.13
2022-11-13T02:55:35.950Z,101038.38
2022-11-13T02:56:07.479Z,101026.16
2022-11-13T02:56:38.865Z,101027.97
2022-11-13T02:57:10.322Z,101039.47
2022-11-13T02:57:41.772Z,101031.59
2022-11-13T02:58:13.195Z,101029.88
2022-11-13T02:58:44.678Z,101033.28
2022-11-13T02:59:16.123Z,101021.88
2022-11-13T02:59:47.577Z,101026.25
2022-11-13T03:00:19.027Z,101033.28
2022-11-13T03:00:50.530Z,101026.16
2022-11-13T03:01:21.990Z,101027.97
2022-11-13T03:01:53.554Z,101025.31
2022-11-13T03:02:25.018Z,101032.31
2022-11-13T03:02:56.455Z,101028.81
2022-11-13T03:03:55.849Z,101029.53
2022-11-13T03:04:19.386Z,101034.97
2022-11-13T03:05:11.264Z,101036.91
2022-11-13T03:05:42.260Z,101038.63
2022-11-13T03:06:13.631Z,101028.19
2022-11-13T03:06:45.135Z,101033.50
2022-11-13T03:07:16.584Z,101029.97
2022-11-13T03:07:48.126Z,101027.22
2022-11-13T03:08:19.519Z,101029.75
2022-11-13T03:08:50.968Z,101028.06
2022-11-13T03:09:22.339Z,101033.28
2022-11-13T03:09:53.797Z,101027.22
2022-11-13T03:10:25.314Z,101021.97
2022-11-13T03:10:56.745Z,101034.25
2022-11-13T03:11:28.133Z,101031.91
2022-11-13T03:11:59.575Z,101035.41
2022-11-13T03:12:31.014Z,101031.78
2022-11-13T03:13:02.541Z,101022.84
2022-11-13T03:13:34.441Z,101028.19
2022-11-13T03:14:06.006Z,101022.84
2022-11-13T03:14:37.845Z,101023.69
2022-11-13T03:15:09.858Z,101025.63
2022-11-13T03:15:41.405Z,101021.88
2022-11-13T03:16:13.933Z,101021.16
2022-11-13T03:16:45.654Z,101028.19
2022-11-13T03:17:17.433Z,101021.16
2022-11-13T03:17:49.162Z,101025.41
2022-11-13T03:18:20.710Z,101021.88
2022-11-13T03:18:52.053Z,101026.38
2022-11-13T03:19:23.546Z,101026.25
2022-11-13T03:19:54.946Z,101022.09
2022-11-13T03:20:26.429Z,101019.22
2022-11-13T03:20:57.955Z,101018.47
2022-11-13T03:21:30.404Z,101021.03
2022-11-13T03:22:01.792Z,101023.59
2022-11-13T03:22:33.193Z,101019.31
2022-11-13T03:23:04.876Z,101025.53
2022-11-13T03:23:36.378Z,101016.66
2022-11-13T03:24:07.779Z,101017.53
2022-11-13T03:24:39.155Z,101020.94
2022-11-13T03:25:11.192Z,101021.16
2022-11-13T03:25:42.743Z,101024.66
2022-11-13T03:26:15.033Z,101013.16
2022-11-13T03:26:46.430Z,101009.53
2022-11-13T03:27:17.834Z,101016.66
2022-11-13T03:27:49.309Z,101016.66
2022-11-13T03:28:20.760Z,101018.47
2022-11-13T03:28:52.272Z,101023.81
2022-11-13T03:29:23.677Z,101010.50
2022-11-13T03:29:55.163Z,101018.38
2022-11-13T03:30:26.956Z,101012.22
2022-11-13T03:30:58.509Z,101014.88
2022-11-13T03:31:29.989Z,101000.69
2022-11-13T03:32:01.421Z,101005.16
2022-11-13T03:32:32.872Z,101008.78
2022-11-13T03:33:04.398Z,101008.66
2022-11-13T03:33:35.853Z,101007.84
2022-11-13T03:34:07.257Z,101012.22
2022-11-13T03:34:38.659Z,101008.66
2022-11-13T03:35:10.102Z,101008.56
2022-11-13T03:35:46.799Z,101000.69
2022-11-13T03:36:18.592Z,101006.78
2022-11-13T03:36:50.077Z,101006.88
2022-11-13T03:37:21.429Z,101011.34
2022-11-13T03:37:52.925Z,101007.63
2022-11-13T03:38:24.587Z,101006.88
2022-11-13T03:38:56.144Z,101007.94
2022-11-13T03:39:27.625Z,101007.00
2022-11-13T03:39:59.064Z,101006.00
2022-11-13T03:40:30.501Z,101005.28
2022-11-13T03:41:02.029Z,101007.09
2022-11-13T03:41:33.487Z,101008.03
2022-11-13T03:42:04.942Z,101000.78
2022-11-13T03:42:36.356Z,101006.22
2022-11-13T03:43:08.008Z,101014.09
2022-11-13T03:43:39.434Z,101007.00
2022-11-13T03:44:10.956Z,101008.56
2022-11-13T03:44:42.302Z,101002.41
2022-11-13T03:45:13.806Z,101005.28
2022-11-13T03:45:45.453Z,101003.44
2022-11-13T03:46:16.880Z,101001.56
2022-11-13T03:46:48.224Z,100996.22
2022-11-13T03:47:19.683Z,101006.88
2022-11-13T03:47:51.092Z,101004.31
2022-11-13T03:48:22.553Z,101001.56
2022-11-13T03:48:53.995Z,101001.56
2022-11-13T03:49:25.398Z,100997.91
2022-11-13T03:49:56.834Z,101000.69
2022-11-13T03:50:28.232Z,101000.06
2022-11-13T03:50:59.964Z,100994.72
2022-11-13T03:51:31.443Z,100999.09
2022-11-13T03:52:02.970Z,100996.44
2022-11-13T03:52:34.522Z,100999.22
2022-11-13T03:53:06.011Z,101001.66
2022-11-13T03:53:37.486Z,100999.84
2022-11-13T03:54:08.946Z,101002.63
2022-11-13T03:54:40.332Z,100998.03
2022-11-13T03:55:11.770Z,100994.50
2022-11-13T03:55:44.961Z,100997.06
2022-11-13T03:56:16.423Z,100996.44
2022-11-13T03:56:47.996Z,101000.78
2022-11-13T03:57:19.704Z,100995.56
2022-11-13T03:57:51.176Z,100997.28
2022-11-13T03:58:22.595Z,100996.44
2022-11-13T03:58:54.049Z,100998.13
2022-11-13T03:59:25.494Z,100994.63
2022-11-13T03:59:56.998Z,100996.44
2022-11-13T04:00:28.412Z,100994.72
2022-11-13T04:00:59.888Z,100999.31
2022-11-13T04:01:31.358Z,100993.06
2022-11-13T04:02:02.811Z,100995.56
2022-11-13T04:02:34.251Z,101000.16
2022-11-13T04:03:05.685Z,100992.06
2022-11-13T04:03:37.092Z,100992.06
2022-11-13T04:04:08.483Z,100992.06
2022-11-13T04:04:39.926Z,100989.41
2022-11-13T04:05:11.381Z,100992.06
2022-11-13T04:05:42.972Z,100987.84
2022-11-13T04:06:14.428Z,101000.91
2022-11-13T04:06:45.930Z,100993.06
2022-11-13T04:07:17.428Z,100987.72
2022-11-13T04:07:48.923Z,100989.28
2022-11-13T04:08:20.407Z,100990.38
2022-11-13T04:08:51.842Z,100991.13
2022-11-13T04:09:23.197Z,100987.47
2022-11-13T04:09:54.689Z,100998.13
2022-11-13T04:10:26.137Z,100993.78
2022-11-13T04:11:07.381Z,100987.72
2022-11-13T04:11:38.922Z,100989.41
2022-11-13T04:12:10.370Z,100990.25
2022-11-13T04:12:41.809Z,100988.56
2022-11-13T04:13:13.185Z,100990.25
2022-11-13T04:13:44.580Z,100993.06
2022-11-13T04:14:16.071Z,100993.06
2022-11-13T04:14:47.531Z,100983.25
2022-11-13T04:15:19.011Z,100985.06
2022-11-13T04:15:50.461Z,100988.66
2022-11-13T04:16:22.017Z,100985.16
2022-11-13T04:16:53.468Z,100987.06
2022-11-13T04:17:24.893Z,100993.06
2022-11-13T04:17:56.317Z,100989.50
2022-11-13T04:18:27.932Z,100982.41
2022-11-13T04:18:59.576Z,100984.81
2022-11-13T04:19:30.988Z,100984.91
2022-11-13T04:20:02.466Z,100981.63
2022-11-13T04:20:33.896Z,100984.19
2022-11-13T04:21:05.356Z,100980.69
2022-11-13T04:21:36.780Z,100969.19
2022-11-13T04:22:08.287Z,100978.97
2022-11-13T04:22:39.709Z,100981.53
2022-11-13T04:23:11.088Z,100974.41
2022-11-13T04:23:42.506Z,100977.91
2022-11-13T04:24:13.912Z,100977.06
2022-11-13T04:24:45.296Z,100981.41
2022-11-13T04:25:16.849Z,100973.53
2022-11-13T04:25:48.556Z,100977.06
2022-11-13T04:26:19.933Z,100977.06
2022-11-13T04:26:51.316Z,100974.41
2022-11-13T04:27:22.856Z,100979.84
2022-11-13T04:27:54.305Z,100970.88
2022-11-13T04:28:25.956Z,100973.66
2022-11-13T04:28:57.626Z,100978.97
2022-11-13T04:29:28.969Z,100969.31
2022-11-13T04:30:00.393Z,100970.03
2022-11-13T04:30:31.839Z,100967.38
2022-11-13T04:31:03.255Z,100975.38
2022-11-13T04:31:34.665Z,100979.72
2022-11-13T04:32:06.208Z,100975.25
2022-11-13T04:32:37.787Z,100975.38
2022-11-13T04:33:09.229Z,100972.69
2022-11-13T04:33:40.590Z,100971.97
2022-11-13T04:34:12.034Z,100969.19
2022-11-13T04:34:43.419Z,100976.19
2022-11-13T04:35:14.797Z,100973.44
2022-11-13T04:35:46.223Z,100969.94
2022-11-13T04:36:17.645Z,100975.38
2022-11-13T04:36:49.122Z,100974.53
2022-11-13T04:37:20.493Z,100968.31
2022-11-13T04:37:51.962Z,100966.53
2022-11-13T04:38:23.466Z,100964.72
2022-11-13T04:38:55.062Z,100973.88
2022-11-13T04:39:26.514Z,100968.53
2022-11-13T04:39:57.942Z,100968.44
2022-11-13T04:40:29.441Z,100963.97
2022-11-13T04:41:00.830Z,100963.97
2022-11-13T04:41:32.242Z,100972.69
2022-11-13T04:42:03.673Z,100966.41
2022-11-13T04:42:35.090Z,100964.94
2022-11-13T04:43:06.590Z,100970.03
2022-11-13T04:43:38.030Z,100965.53
2022-11-13T04:44:09.524Z,100969.09
2022-11-13T04:44:41.098Z,100971.75
2022-11-13T04:45:12.527Z,100963.00
2022-11-13T04:45:44.011Z,100968.31
2022-11-13T04:46:15.438Z,100960.22
2022-11-13T04:46:46.864Z,100960.34
2022-11-13T04:47:18.427Z,100959.38
2022-11-13T04:47:50.825Z,100956.00
2022-11-13T04:48:22.294Z,100960.44
2022-11-13T04:48:53.710Z,100960.34
2022-11-13T04:49:25.130Z,100964.09
2022-11-13T04:49:56.538Z,100962.16
2022-11-13T04:50:27.976Z,100961.31
2022-11-13T04:50:59.411Z,100952.34
2022-11-13T04:51:30.895Z,100953.22
2022-11-13T04:52:02.378Z,100948.94
2022-11-13T04:52:33.777Z,100947.03
2022-11-13T04:53:05.302Z,100954.16
2022-11-13T04:53:36.790Z,100955.78
2022-11-13T04:54:08.262Z,100954.06
2022-11-13T04:54:39.696Z,100952.34
2022-11-13T04:55:11.252Z,100948.00
2022-11-13T04:55:42.692Z,100955.22
2022-11-13T04:56:14.135Z,100954.06
2022-11-13T04:56:45.599Z,100955.78
2022-11-13T04:57:17.041Z,100948.84
2022-11-13T04:57:48.452Z,100952.34
2022-11-13T04:58:19.862Z,100954.06
2022-11-13T04:58:51.305Z,100954.16
2022-11-13T04:59:22.790Z,100957.78
2022-11-13T04:59:54.267Z,100952.56
2022-11-13T05:00:25.684Z,100952.56
2022-11-13T05:00:57.154Z,100951.72
2022-11-13T05:01:28.685Z,100950.88
2022-11-13T05:02:00.181Z,100950.66
2022-11-13T05:02:31.627Z,100956.22
2022-11-13T05:03:03.139Z,100950.66
2022-11-13T05:03:34.583Z,100950.66
2022-11-13T05:04:05.972Z,100944.47
2022-11-13T05:04:37.427Z,100948.84
2022-11-13T05:05:08.963Z,100947.13
2022-11-13T05:05:40.411Z,100948.09
2022-11-13T05:06:11.991Z,100951.50
2022-11-13T05:06:43.512Z,100946.19
2022-11-13T05:07:15.076Z,100949.78
2022-11-13T05:07:46.593Z,100947.78
2022-11-13T05:08:18.103Z,100950.66
2022-11-13T05:08:49.561Z,100939.25
2022-11-13T05:09:21.065Z,100947.88
2022-11-13T05:09:52.660Z,100945.22
2022-11-13T05:10:24.137Z,100950.66
2022-11-13T05:10:55.589Z,100940.00
2022-11-13T05:11:27.111Z,100938.19
2022-11-13T05:11:58.525Z,100950.66
2022-11-13T05:12:30.076Z,100948.09
2022-11-13T05:13:01.458Z,100939.03
2022-11-13T05:13:33.308Z,100939.78
2022-11-13T05:14:04.995Z,100933.59
2022-11-13T05:14:39.654Z,100933.72
2022-11-13T05:15:11.039Z,100935.53
2022-11-13T05:15:42.508Z,100939.03
2022-11-13T05:16:14.642Z,100945.22
2022-11-13T05:16:46.079Z,100945.22
2022-11-13T05:17:17.463Z,100937.34
2022-11-13T05:17:49.168Z,100933.94
2022-11-13T05:18:21.874Z,100936.38
2022-11-13T05:18:53.331Z,100936.38
2022-11-13T05:19:24.849Z,100937.47
2022-11-13T05:19:56.293Z,100938.41
2022-11-13T05:20:27.788Z,100940.97
2022-11-13T05:20:59.291Z,100935.75
2022-11-13T05:21:30.859Z,100943.50
2022-11-13T05:22:02.375Z,100940.00
2022-11-13T05:22:33.783Z,100926.69
2022-11-13T05:23:05.226Z,100935.53
2022-11-13T05:23:36.700Z,100924.03
2022-11-13T05:24:09.587Z,100931.25
2022-11-13T05:24:41.040Z,100927.88
2022-11-13T05:25:12.470Z,100928.59
2022-11-13T05:25:43.983Z,100916.88
2022-11-13T05:26:15.412Z,100922.22
2022-11-13T05:26:46.872Z,100924.16
2022-11-13T05:27:18.281Z,100922.94
2022-11-13T05:27:49.665Z,100926.47
2022-11-13T05:28:21.133Z,100928.38
2022-11-13T05:28:52.875Z,100924.88
2022-11-13T05:29:24.428Z,100925.72
2022-11-13T05:29:55.827Z,100924.88
2022-11-13T05:30:27.327Z,100927.44
2022-11-13T05:31:05.283Z,100920.38
2022-11-13T05:31:36.689Z,100919.56
2022-11-13T05:32:08.099Z,100922.44
2022-11-13T05:32:39.495Z,100924.88
2022-11-13T05:33:10.895Z,100919.44
2022-11-13T05:33:42.600Z,100919.44
2022-11-13T05:34:14.005Z,100920.38
2022-11-13T05:34:45.422Z,100919.78
2022-11-13T05:35:16.866Z,100917.94
2022-11-13T05:35:48.283Z,100920.63
2022-11-13T05:36:19.782Z,100920.63
2022-11-13T05:36:51.239Z,100909.97
2022-11-13T05:37:22.692Z,100917.94
2022-11-13T05:37:54.523Z,100917.22
2022-11-13T05:38:26.182Z,100912.50
2022-11-13T05:38:57.762Z,100918.94
2022-11-13T05:39:29.262Z,100912.63
2022-11-13T05:40:00.683Z,100924.03
2022-11-13T05:40:32.133Z,100914.34
2022-11-13T05:41:03.569Z,100913.59
2022-11-13T05:41:35.008Z,100913.38
2022-11-13T05:42:06.853Z,100911.69
2022-11-13T05:42:38.358Z,100909.75
2022-11-13T05:43:09.831Z,100904.41
2022-11-13T05:43:41.305Z,100909.84
2022-11-13T05:44:12.667Z,100908.16
2022-11-13T05:44:44.213Z,100904.63
2022-11-13T05:45:15.663Z,100907.19
2022-11-13T05:45:47.170Z,100905.50
2022-11-13T05:46:22.053Z,100909.97
2022-11-13T05:46:53.492Z,100900.28
2022-11-13T05:47:24.968Z,100905.63
2022-11-13T05:47:57.247Z,100904.75
2022-11-13T05:48:29.092Z,100902.97
2022-11-13T05:49:01.053Z,100903.78
2022-11-13T05:49:32.467Z,100902.84
2022-11-13T05:50:04.055Z,100902.97
2022-11-13T05:50:35.543Z,100909.13
2022-11-13T05:51:07.788Z,100901.88
2022-11-13T05:51:39.254Z,100900.19
2022-11-13T05:52:10.672Z,100897.41
2022-11-13T05:52:42.103Z,100899.31
2022-11-13T05:53:13.549Z,100898.59
2022-11-13T05:53:44.973Z,100901.25
2022-11-13T05:54:16.461Z,100894.09
2022-11-13T05:54:47.914Z,100894.00
2022-11-13T05:55:23.197Z,100894.00
2022-11-13T05:55:54.997Z,100888.88
2022-11-13T05:56:27.372Z,100892.41
2022-11-13T05:56:58.809Z,100890.59
2022-11-13T05:57:30.306Z,100889.75
2022-11-13T05:58:02.184Z,100888.66
2022-11-13T05:58:33.738Z,100886.88
2022-11-13T05:59:05.164Z,100884.44
2022-11-13T05:59:36.668Z,100879.00
2022-11-13T06:00:08.417Z,100887.94
2022-11-13T06:00:39.853Z,100885.28
2022-11-13T06:01:14.816Z,100893.25
2022-11-13T06:01:46.402Z,100881.53
2022-11-13T06:02:17.948Z,100886.97
2022-11-13T06:02:49.458Z,100886.13
2022-11-13T06:03:20.989Z,100879.94
2022-11-13T06:03:52.600Z,100888.56
2022-11-13T06:04:24.042Z,100881.53
2022-11-13T06:04:56.686Z,100880.69
2022-11-13T06:05:28.294Z,100886.88
2022-11-13T06:05:59.701Z,100880.78
2022-11-13T06:06:31.275Z,100888.66
2022-11-13T06:07:02.825Z,100890.25
2022-11-13T06:07:34.315Z,100888.44